クェゼリン環礁 の空港の天気 - METARとTAF

バックホルツ陸軍飛行場 ( PKWA / KWA ) - マーシャル諸島 クェゼリン環礁
飛行場実況気象(Metar)
観測時間10/20 06:20 MHT (10/19 18:20 UTC)
風向・風速北東 4m/s
視程10km以上
天気現象
全天の4割程度の雲 雲底高度 670m
気温26.2℃
湿度88%
気圧1011hPa
METARPKWA 191820Z AUTO 05007KT 10SM SCT022 26/24 A2984 RMK AO2 LTG DSNT SE T02620240
過去の天気等 Google飛行場航空写真 Wunderground天気予報

過去48時間のMETAR

飛行場予報(TAF)
発表時間: 10/20 05:34 MHT (10/19 17:34 UTC)
予報対象時間: 20日6時 MHT ~ 21日6時 MHT
風向・風速東 5m/s
視程10km以上
天気現象周辺でしゅう雨
少しの雲 雲底高度 610m
全天の4割程度の雲 雲底高度 1070m
全天の8割程度の雲 雲底高度 3350m
20日6時 MHT ~ 20日9時 MHT に一時的に
風向・風速不定 3m/s
視程8050m
天気現象弱いしゅう雨
全天の4割程度の雲 雲底高度 460m
全天の8割程度の雲 雲底高度 910m
全天を覆う雲 雲底高度 1830m
PKWA 191734Z 1918/2018 08009KT P6SM VCSH FEW020 SCT035 BKN110
TEMPO 1918/1921 VRB05KT 5SM -SHRA SCT015 BKN030 OVC060